sensor_id;sensor_type;location;lat;lon;timestamp;P1;durP1;ratioP1;P2;durP2;ratioP2
18090;SDS011;9172;49.948;9.208;2024-02-15T00:00:12;6.57;;;2.00;;
18090;SDS011;9172;49.948;9.208;2024-02-15T00:02:43;4.53;;;2.00;;
18090;SDS011;9172;49.948;9.208;2024-02-15T00:05:12;3.30;;;1.83;;
18090;SDS011;9172;49.948;9.208;2024-02-15T00:07:42;5.17;;;2.07;;
18090;SDS011;9172;49.948;9.208;2024-02-15T00:10:11;8.10;;;2.50;;
18090;SDS011;9172;49.948;9.208;2024-02-15T00:12:40;2.47;;;1.87;;
18090;SDS011;9172;49.948;9.208;2024-02-15T00:15:09;2.50;;;1.90;;
18090;SDS011;9172;49.948;9.208;2024-02-15T00:17:38;2.80;;;1.80;;
18090;SDS011;9172;49.948;9.208;2024-02-15T00:20:07;2.73;;;1.57;;
18090;SDS011;9172;49.948;9.208;2024-02-15T00:22:37;3.07;;;1.67;;
18090;SDS011;9172;49.948;9.208;2024-02-15T00:25:07;2.80;;;1.70;;
18090;SDS011;9172;49.948;9.208;2024-02-15T00:27:37;3.30;;;1.73;;
18090;SDS011;9172;49.948;9.208;2024-02-15T00:30:06;3.50;;;1.53;;
18090;SDS011;9172;49.948;9.208;2024-02-15T00:32:37;3.30;;;2.03;;
18090;SDS011;9172;49.948;9.208;2024-02-15T00:35:06;2.33;;;1.77;;
18090;SDS011;9172;49.948;9.208;2024-02-15T00:37:35;2.73;;;1.60;;
18090;SDS011;9172;49.948;9.208;2024-02-15T00:40:05;5.67;;;1.83;;
18090;SDS011;9172;49.948;9.208;2024-02-15T00:42:35;9.67;;;2.60;;
18090;SDS011;9172;49.948;9.208;2024-02-15T00:45:04;3.10;;;2.07;;
18090;SDS011;9172;49.948;9.208;2024-02-15T00:47:35;4.43;;;1.80;;
18090;SDS011;9172;49.948;9.208;2024-02-15T00:50:05;3.10;;;1.90;;
18090;SDS011;9172;49.948;9.208;2024-02-15T00:52:35;2.97;;;1.50;;
18090;SDS011;9172;49.948;9.208;2024-02-15T00:55:04;4.97;;;2.00;;
18090;SDS011;9172;49.948;9.208;2024-02-15T00:57:33;2.17;;;1.77;;
18090;SDS011;9172;49.948;9.208;2024-02-15T01:00:02;2.83;;;1.80;;
18090;SDS011;9172;49.948;9.208;2024-02-15T01:02:32;4.67;;;1.73;;
18090;SDS011;9172;49.948;9.208;2024-02-15T01:05:02;4.57;;;1.83;;
18090;SDS011;9172;49.948;9.208;2024-02-15T01:07:31;3.90;;;2.07;;
18090;SDS011;9172;49.948;9.208;2024-02-15T01:09:59;2.67;;;1.80;;
18090;SDS011;9172;49.948;9.208;2024-02-15T01:12:30;7.53;;;2.30;;
18090;SDS011;9172;49.948;9.208;2024-02-15T01:14:59;4.43;;;2.70;;
18090;SDS011;9172;49.948;9.208;2024-02-15T01:17:28;6.07;;;2.20;;
18090;SDS011;9172;49.948;9.208;2024-02-15T01:19:56;2.90;;;1.80;;
18090;SDS011;9172;49.948;9.208;2024-02-15T01:22:25;2.87;;;2.13;;
18090;SDS011;9172;49.948;9.208;2024-02-15T01:24:54;4.50;;;2.27;;
18090;SDS011;9172;49.948;9.208;2024-02-15T01:27:23;4.30;;;2.00;;
18090;SDS011;9172;49.948;9.208;2024-02-15T01:29:53;4.40;;;2.17;;
18090;SDS011;9172;49.948;9.208;2024-02-15T01:32:21;3.63;;;1.73;;
18090;SDS011;9172;49.948;9.208;2024-02-15T01:34:51;2.93;;;1.80;;
18090;SDS011;9172;49.948;9.208;2024-02-15T01:37:21;4.07;;;1.90;;
18090;SDS011;9172;49.948;9.208;2024-02-15T01:39:50;4.33;;;1.77;;
18090;SDS011;9172;49.948;9.208;2024-02-15T01:42:18;2.90;;;1.73;;
18090;SDS011;9172;49.948;9.208;2024-02-15T01:44:47;4.50;;;2.07;;
18090;SDS011;9172;49.948;9.208;2024-02-15T01:47:16;1.77;;;1.43;;
18090;SDS011;9172;49.948;9.208;2024-02-15T01:49:46;2.47;;;1.47;;
18090;SDS011;9172;49.948;9.208;2024-02-15T01:52:15;3.50;;;1.80;;
18090;SDS011;9172;49.948;9.208;2024-02-15T01:54:45;3.27;;;2.03;;
18090;SDS011;9172;49.948;9.208;2024-02-15T01:57:14;4.43;;;1.60;;
18090;SDS011;9172;49.948;9.208;2024-02-15T01:59:43;2.60;;;1.50;;
18090;SDS011;9172;49.948;9.208;2024-02-15T02:02:12;2.20;;;1.60;;
18090;SDS011;9172;49.948;9.208;2024-02-15T02:04:44;7.03;;;1.43;;
18090;SDS011;9172;49.948;9.208;2024-02-15T02:07:13;5.43;;;1.73;;
18090;SDS011;9172;49.948;9.208;2024-02-15T02:09:42;2.90;;;1.70;;
18090;SDS011;9172;49.948;9.208;2024-02-15T02:12:12;5.23;;;1.73;;
18090;SDS011;9172;49.948;9.208;2024-02-15T02:14:41;6.17;;;1.93;;
18090;SDS011;9172;49.948;9.208;2024-02-15T02:17:12;3.17;;;1.70;;
18090;SDS011;9172;49.948;9.208;2024-02-15T02:19:41;3.23;;;1.80;;
18090;SDS011;9172;49.948;9.208;2024-02-15T02:22:10;4.63;;;2.23;;
18090;SDS011;9172;49.948;9.208;2024-02-15T02:24:44;4.63;;;2.00;;
18090;SDS011;9172;49.948;9.208;2024-02-15T02:27:21;8.80;;;1.73;;
18090;SDS011;9172;49.948;9.208;2024-02-15T02:29:51;3.40;;;1.90;;
18090;SDS011;9172;49.948;9.208;2024-02-15T02:32:19;3.37;;;2.23;;
18090;SDS011;9172;49.948;9.208;2024-02-15T02:34:48;3.93;;;1.60;;
18090;SDS011;9172;49.948;9.208;2024-02-15T02:37:16;7.07;;;1.97;;
18090;SDS011;9172;49.948;9.208;2024-02-15T02:39:45;4.27;;;2.07;;
18090;SDS011;9172;49.948;9.208;2024-02-15T02:42:13;4.17;;;1.50;;
18090;SDS011;9172;49.948;9.208;2024-02-15T02:44:42;4.97;;;2.00;;
18090;SDS011;9172;49.948;9.208;2024-02-15T02:47:11;3.30;;;1.53;;
18090;SDS011;9172;49.948;9.208;2024-02-15T02:49:39;6.17;;;1.73;;
18090;SDS011;9172;49.948;9.208;2024-02-15T02:52:08;4.97;;;2.00;;
18090;SDS011;9172;49.948;9.208;2024-02-15T02:54:37;4.17;;;1.90;;
18090;SDS011;9172;49.948;9.208;2024-02-15T02:57:05;5.07;;;2.10;;
18090;SDS011;9172;49.948;9.208;2024-02-15T02:59:34;3.33;;;1.77;;
18090;SDS011;9172;49.948;9.208;2024-02-15T03:02:04;6.60;;;2.27;;
18090;SDS011;9172;49.948;9.208;2024-02-15T03:04:34;5.83;;;2.23;;
18090;SDS011;9172;49.948;9.208;2024-02-15T03:07:04;6.83;;;2.17;;
18090;SDS011;9172;49.948;9.208;2024-02-15T03:09:33;5.70;;;2.13;;
18090;SDS011;9172;49.948;9.208;2024-02-15T03:12:04;8.53;;;2.37;;
18090;SDS011;9172;49.948;9.208;2024-02-15T03:14:32;3.20;;;1.87;;
18090;SDS011;9172;49.948;9.208;2024-02-15T03:17:01;5.10;;;2.30;;
18090;SDS011;9172;49.948;9.208;2024-02-15T03:19:30;3.70;;;1.90;;
18090;SDS011;9172;49.948;9.208;2024-02-15T03:21:59;2.77;;;1.80;;
18090;SDS011;9172;49.948;9.208;2024-02-15T03:24:27;4.43;;;2.27;;
18090;SDS011;9172;49.948;9.208;2024-02-15T03:26:55;4.73;;;1.93;;
18090;SDS011;9172;49.948;9.208;2024-02-15T03:29:24;6.43;;;1.93;;
18090;SDS011;9172;49.948;9.208;2024-02-15T03:31:53;4.53;;;2.23;;
18090;SDS011;9172;49.948;9.208;2024-02-15T03:34:21;5.20;;;2.20;;
18090;SDS011;9172;49.948;9.208;2024-02-15T03:36:51;4.70;;;2.00;;
18090;SDS011;9172;49.948;9.208;2024-02-15T03:39:20;7.50;;;2.27;;
18090;SDS011;9172;49.948;9.208;2024-02-15T03:41:49;3.10;;;2.00;;
18090;SDS011;9172;49.948;9.208;2024-02-15T03:44:19;5.50;;;2.20;;
18090;SDS011;9172;49.948;9.208;2024-02-15T03:46:48;3.13;;;2.10;;
18090;SDS011;9172;49.948;9.208;2024-02-15T03:49:18;4.53;;;2.20;;
18090;SDS011;9172;49.948;9.208;2024-02-15T03:51:48;6.20;;;2.23;;
18090;SDS011;9172;49.948;9.208;2024-02-15T03:54:16;6.60;;;1.80;;
18090;SDS011;9172;49.948;9.208;2024-02-15T03:56:48;3.50;;;1.90;;
18090;SDS011;9172;49.948;9.208;2024-02-15T03:59:19;4.70;;;1.90;;
18090;SDS011;9172;49.948;9.208;2024-02-15T04:01:49;4.00;;;1.93;;
18090;SDS011;9172;49.948;9.208;2024-02-15T04:04:18;2.80;;;1.87;;
18090;SDS011;9172;49.948;9.208;2024-02-15T04:06:47;7.53;;;1.80;;
18090;SDS011;9172;49.948;9.208;2024-02-15T04:09:17;4.60;;;2.00;;
18090;SDS011;9172;49.948;9.208;2024-02-15T04:11:47;6.23;;;1.70;;
18090;SDS011;9172;49.948;9.208;2024-02-15T04:14:18;6.00;;;1.93;;
18090;SDS011;9172;49.948;9.208;2024-02-15T04:16:47;8.37;;;2.53;;
18090;SDS011;9172;49.948;9.208;2024-02-15T04:19:15;5.30;;;1.87;;
18090;SDS011;9172;49.948;9.208;2024-02-15T04:21:46;3.57;;;1.97;;
18090;SDS011;9172;49.948;9.208;2024-02-15T04:24:15;2.93;;;1.80;;
18090;SDS011;9172;49.948;9.208;2024-02-15T04:26:44;3.30;;;1.80;;
18090;SDS011;9172;49.948;9.208;2024-02-15T04:29:14;3.07;;;2.23;;
18090;SDS011;9172;49.948;9.208;2024-02-15T04:31:44;2.13;;;1.53;;
18090;SDS011;9172;49.948;9.208;2024-02-15T04:34:14;6.07;;;1.90;;
18090;SDS011;9172;49.948;9.208;2024-02-15T04:36:43;6.07;;;2.17;;
18090;SDS011;9172;49.948;9.208;2024-02-15T04:39:14;5.47;;;1.70;;
18090;SDS011;9172;49.948;9.208;2024-02-15T04:41:45;6.43;;;2.37;;
18090;SDS011;9172;49.948;9.208;2024-02-15T04:44:13;9.10;;;1.80;;
18090;SDS011;9172;49.948;9.208;2024-02-15T04:46:42;9.80;;;2.20;;
18090;SDS011;9172;49.948;9.208;2024-02-15T04:49:12;4.27;;;2.00;;
18090;SDS011;9172;49.948;9.208;2024-02-15T04:51:41;6.67;;;2.03;;
18090;SDS011;9172;49.948;9.208;2024-02-15T04:54:10;4.23;;;2.27;;
18090;SDS011;9172;49.948;9.208;2024-02-15T04:56:39;7.67;;;2.90;;
18090;SDS011;9172;49.948;9.208;2024-02-15T04:59:08;8.47;;;3.30;;
18090;SDS011;9172;49.948;9.208;2024-02-15T05:01:39;5.03;;;2.20;;
18090;SDS011;9172;49.948;9.208;2024-02-15T05:04:08;9.17;;;2.50;;
18090;SDS011;9172;49.948;9.208;2024-02-15T05:06:38;6.90;;;2.60;;
18090;SDS011;9172;49.948;9.208;2024-02-15T05:09:07;4.30;;;1.97;;
18090;SDS011;9172;49.948;9.208;2024-02-15T05:11:37;3.67;;;1.90;;
18090;SDS011;9172;49.948;9.208;2024-02-15T05:14:09;5.67;;;2.10;;
18090;SDS011;9172;49.948;9.208;2024-02-15T05:16:38;5.00;;;2.00;;
18090;SDS011;9172;49.948;9.208;2024-02-15T05:19:09;7.17;;;2.03;;
18090;SDS011;9172;49.948;9.208;2024-02-15T05:21:38;3.50;;;1.47;;
18090;SDS011;9172;49.948;9.208;2024-02-15T05:24:07;3.67;;;1.40;;
18090;SDS011;9172;49.948;9.208;2024-02-15T05:26:36;5.17;;;2.13;;
18090;SDS011;9172;49.948;9.208;2024-02-15T05:29:04;2.70;;;1.60;;
18090;SDS011;9172;49.948;9.208;2024-02-15T05:31:33;9.97;;;1.53;;
18090;SDS011;9172;49.948;9.208;2024-02-15T05:34:04;3.40;;;2.50;;
18090;SDS011;9172;49.948;9.208;2024-02-15T05:36:34;4.30;;;2.00;;
18090;SDS011;9172;49.948;9.208;2024-02-15T05:39:03;4.53;;;1.80;;
18090;SDS011;9172;49.948;9.208;2024-02-15T05:41:31;3.40;;;1.73;;
18090;SDS011;9172;49.948;9.208;2024-02-15T05:44:01;2.37;;;1.60;;
18090;SDS011;9172;49.948;9.208;2024-02-15T05:46:31;3.13;;;1.70;;
18090;SDS011;9172;49.948;9.208;2024-02-15T05:49:02;7.73;;;1.63;;
18090;SDS011;9172;49.948;9.208;2024-02-15T05:51:31;6.27;;;2.00;;
18090;SDS011;9172;49.948;9.208;2024-02-15T05:54:00;6.13;;;1.83;;
18090;SDS011;9172;49.948;9.208;2024-02-15T05:56:28;9.73;;;1.80;;
18090;SDS011;9172;49.948;9.208;2024-02-15T05:58:57;3.70;;;2.10;;
18090;SDS011;9172;49.948;9.208;2024-02-15T06:01:27;3.30;;;1.30;;
18090;SDS011;9172;49.948;9.208;2024-02-15T06:03:56;2.23;;;1.20;;
18090;SDS011;9172;49.948;9.208;2024-02-15T06:06:26;4.70;;;1.33;;
18090;SDS011;9172;49.948;9.208;2024-02-15T06:08:55;7.07;;;1.77;;
18090;SDS011;9172;49.948;9.208;2024-02-15T06:11:26;4.27;;;2.00;;
18090;SDS011;9172;49.948;9.208;2024-02-15T06:13:55;7.97;;;1.77;;
18090;SDS011;9172;49.948;9.208;2024-02-15T06:16:24;4.10;;;1.70;;
18090;SDS011;9172;49.948;9.208;2024-02-15T06:18:52;3.40;;;1.77;;
18090;SDS011;9172;49.948;9.208;2024-02-15T06:21:21;5.23;;;1.70;;
18090;SDS011;9172;49.948;9.208;2024-02-15T06:23:50;7.87;;;1.80;;
18090;SDS011;9172;49.948;9.208;2024-02-15T06:26:19;2.20;;;1.40;;
18090;SDS011;9172;49.948;9.208;2024-02-15T06:28:48;9.90;;;1.90;;
18090;SDS011;9172;49.948;9.208;2024-02-15T06:31:34;9.00;;;1.60;;
18090;SDS011;9172;49.948;9.208;2024-02-15T06:34:21;5.97;;;1.97;;
18090;SDS011;9172;49.948;9.208;2024-02-15T06:37:07;7.13;;;1.90;;
18090;SDS011;9172;49.948;9.208;2024-02-15T06:39:54;1.53;;;1.13;;
18090;SDS011;9172;49.948;9.208;2024-02-15T06:42:22;11.07;;;1.87;;
18090;SDS011;9172;49.948;9.208;2024-02-15T06:44:53;6.23;;;1.60;;
18090;SDS011;9172;49.948;9.208;2024-02-15T06:47:21;8.20;;;2.10;;
18090;SDS011;9172;49.948;9.208;2024-02-15T06:49:50;7.30;;;2.13;;
18090;SDS011;9172;49.948;9.208;2024-02-15T06:52:20;4.23;;;1.70;;
18090;SDS011;9172;49.948;9.208;2024-02-15T06:54:48;6.67;;;1.93;;
18090;SDS011;9172;49.948;9.208;2024-02-15T06:57:18;3.33;;;1.30;;
18090;SDS011;9172;49.948;9.208;2024-02-15T06:59:47;3.83;;;1.67;;
18090;SDS011;9172;49.948;9.208;2024-02-15T07:02:15;4.00;;;1.40;;
18090;SDS011;9172;49.948;9.208;2024-02-15T07:04:44;9.20;;;2.10;;
18090;SDS011;9172;49.948;9.208;2024-02-15T07:07:15;2.53;;;1.23;;
18090;SDS011;9172;49.948;9.208;2024-02-15T07:09:43;6.30;;;1.70;;
18090;SDS011;9172;49.948;9.208;2024-02-15T07:12:12;7.93;;;1.47;;
18090;SDS011;9172;49.948;9.208;2024-02-15T07:14:41;3.90;;;1.10;;
18090;SDS011;9172;49.948;9.208;2024-02-15T07:17:10;8.53;;;1.50;;
18090;SDS011;9172;49.948;9.208;2024-02-15T07:19:42;5.13;;;1.73;;
18090;SDS011;9172;49.948;9.208;2024-02-15T07:22:11;3.90;;;1.13;;
18090;SDS011;9172;49.948;9.208;2024-02-15T07:24:40;5.17;;;1.30;;
18090;SDS011;9172;49.948;9.208;2024-02-15T07:27:08;5.07;;;1.30;;
18090;SDS011;9172;49.948;9.208;2024-02-15T07:29:37;2.47;;;1.40;;
18090;SDS011;9172;49.948;9.208;2024-02-15T07:32:06;8.47;;;1.27;;
18090;SDS011;9172;49.948;9.208;2024-02-15T07:34:35;3.90;;;1.37;;
18090;SDS011;9172;49.948;9.208;2024-02-15T07:37:04;7.27;;;1.60;;
18090;SDS011;9172;49.948;9.208;2024-02-15T07:39:35;3.90;;;1.27;;
18090;SDS011;9172;49.948;9.208;2024-02-15T07:42:03;6.37;;;1.93;;
18090;SDS011;9172;49.948;9.208;2024-02-15T07:44:34;3.37;;;1.30;;
18090;SDS011;9172;49.948;9.208;2024-02-15T07:47:03;5.17;;;1.27;;
18090;SDS011;9172;49.948;9.208;2024-02-15T07:49:32;4.80;;;1.37;;
18090;SDS011;9172;49.948;9.208;2024-02-15T07:52:01;3.07;;;1.03;;
18090;SDS011;9172;49.948;9.208;2024-02-15T07:54:30;5.87;;;1.37;;
18090;SDS011;9172;49.948;9.208;2024-02-15T07:56:59;2.43;;;1.30;;
18090;SDS011;9172;49.948;9.208;2024-02-15T07:59:28;5.43;;;1.13;;
18090;SDS011;9172;49.948;9.208;2024-02-15T08:01:56;2.83;;;1.50;;
18090;SDS011;9172;49.948;9.208;2024-02-15T08:04:25;4.80;;;1.47;;
18090;SDS011;9172;49.948;9.208;2024-02-15T08:06:54;5.33;;;1.40;;
18090;SDS011;9172;49.948;9.208;2024-02-15T08:09:23;4.93;;;1.57;;
18090;SDS011;9172;49.948;9.208;2024-02-15T08:11:54;5.67;;;1.30;;
18090;SDS011;9172;49.948;9.208;2024-02-15T08:14:24;3.80;;;1.57;;
18090;SDS011;9172;49.948;9.208;2024-02-15T08:16:53;10.97;;;2.63;;
18090;SDS011;9172;49.948;9.208;2024-02-15T08:19:22;3.93;;;1.30;;
18090;SDS011;9172;49.948;9.208;2024-02-15T08:21:51;5.13;;;1.50;;
18090;SDS011;9172;49.948;9.208;2024-02-15T08:24:19;9.17;;;1.63;;
18090;SDS011;9172;49.948;9.208;2024-02-15T08:26:48;8.00;;;1.67;;
18090;SDS011;9172;49.948;9.208;2024-02-15T08:29:16;7.40;;;1.43;;
18090;SDS011;9172;49.948;9.208;2024-02-15T08:31:45;4.07;;;1.33;;
18090;SDS011;9172;49.948;9.208;2024-02-15T08:34:15;7.53;;;1.63;;
18090;SDS011;9172;49.948;9.208;2024-02-15T08:36:44;4.43;;;1.60;;
18090;SDS011;9172;49.948;9.208;2024-02-15T08:42:02;4.87;;;1.67;;
18090;SDS011;9172;49.948;9.208;2024-02-15T08:44:31;7.37;;;1.97;;
18090;SDS011;9172;49.948;9.208;2024-02-15T08:47:00;2.63;;;1.20;;
18090;SDS011;9172;49.948;9.208;2024-02-15T08:49:30;5.87;;;1.77;;
18090;SDS011;9172;49.948;9.208;2024-02-15T08:51:59;7.20;;;1.60;;
18090;SDS011;9172;49.948;9.208;2024-02-15T08:54:27;3.80;;;1.30;;
18090;SDS011;9172;49.948;9.208;2024-02-15T08:56:57;8.37;;;1.93;;
18090;SDS011;9172;49.948;9.208;2024-02-15T08:59:27;6.47;;;1.87;;
18090;SDS011;9172;49.948;9.208;2024-02-15T09:01:56;4.93;;;1.90;;
18090;SDS011;9172;49.948;9.208;2024-02-15T09:04:26;2.47;;;1.60;;
18090;SDS011;9172;49.948;9.208;2024-02-15T09:06:56;4.40;;;1.30;;
18090;SDS011;9172;49.948;9.208;2024-02-15T09:09:24;3.83;;;1.10;;
18090;SDS011;9172;49.948;9.208;2024-02-15T09:11:53;4.30;;;1.30;;
18090;SDS011;9172;49.948;9.208;2024-02-15T09:14:21;4.10;;;1.10;;
18090;SDS011;9172;49.948;9.208;2024-02-15T09:16:50;2.20;;;1.27;;
18090;SDS011;9172;49.948;9.208;2024-02-15T09:19:18;2.03;;;1.20;;
18090;SDS011;9172;49.948;9.208;2024-02-15T09:21:47;4.17;;;1.60;;
18090;SDS011;9172;49.948;9.208;2024-02-15T09:24:15;2.53;;;1.33;;
18090;SDS011;9172;49.948;9.208;2024-02-15T09:26:44;4.90;;;1.27;;
18090;SDS011;9172;49.948;9.208;2024-02-15T09:29:12;1.40;;;1.00;;
18090;SDS011;9172;49.948;9.208;2024-02-15T09:31:41;2.43;;;1.00;;
18090;SDS011;9172;49.948;9.208;2024-02-15T09:34:09;2.20;;;1.07;;
18090;SDS011;9172;49.948;9.208;2024-02-15T09:36:39;6.77;;;1.37;;
18090;SDS011;9172;49.948;9.208;2024-02-15T09:39:08;1.90;;;1.10;;
18090;SDS011;9172;49.948;9.208;2024-02-15T09:41:38;4.33;;;1.30;;
18090;SDS011;9172;49.948;9.208;2024-02-15T09:44:09;3.60;;;1.33;;
18090;SDS011;9172;49.948;9.208;2024-02-15T09:46:42;2.83;;;1.33;;
18090;SDS011;9172;49.948;9.208;2024-02-15T09:49:18;2.93;;;1.10;;
18090;SDS011;9172;49.948;9.208;2024-02-15T09:51:47;3.83;;;1.47;;
18090;SDS011;9172;49.948;9.208;2024-02-15T09:54:17;1.93;;;0.97;;
18090;SDS011;9172;49.948;9.208;2024-02-15T09:56:48;5.03;;;1.20;;
18090;SDS011;9172;49.948;9.208;2024-02-15T09:59:17;4.40;;;1.47;;
18090;SDS011;9172;49.948;9.208;2024-02-15T10:01:46;3.27;;;1.00;;
18090;SDS011;9172;49.948;9.208;2024-02-15T10:04:15;2.50;;;0.93;;
18090;SDS011;9172;49.948;9.208;2024-02-15T10:06:44;4.20;;;1.30;;
18090;SDS011;9172;49.948;9.208;2024-02-15T10:09:29;4.27;;;1.50;;
18090;SDS011;9172;49.948;9.208;2024-02-15T10:12:00;1.40;;;0.80;;
18090;SDS011;9172;49.948;9.208;2024-02-15T10:14:36;6.57;;;1.40;;
18090;SDS011;9172;49.948;9.208;2024-02-15T10:17:08;2.90;;;1.20;;
18090;SDS011;9172;49.948;9.208;2024-02-15T10:19:37;2.43;;;1.20;;
18090;SDS011;9172;49.948;9.208;2024-02-15T10:22:08;5.47;;;1.50;;
18090;SDS011;9172;49.948;9.208;2024-02-15T10:24:39;1.73;;;1.23;;
18090;SDS011;9172;49.948;9.208;2024-02-15T10:27:08;5.13;;;0.97;;
18090;SDS011;9172;49.948;9.208;2024-02-15T10:29:37;6.37;;;1.60;;
18090;SDS011;9172;49.948;9.208;2024-02-15T10:32:07;3.37;;;1.07;;
18090;SDS011;9172;49.948;9.208;2024-02-15T10:34:37;1.47;;;1.00;;
18090;SDS011;9172;49.948;9.208;2024-02-15T10:37:12;2.83;;;0.90;;
18090;SDS011;9172;49.948;9.208;2024-02-15T10:39:42;4.47;;;1.10;;
18090;SDS011;9172;49.948;9.208;2024-02-15T10:42:11;2.93;;;1.30;;
18090;SDS011;9172;49.948;9.208;2024-02-15T10:44:42;3.53;;;1.23;;
18090;SDS011;9172;49.948;9.208;2024-02-15T10:47:12;5.63;;;1.00;;
18090;SDS011;9172;49.948;9.208;2024-02-15T10:49:41;4.20;;;1.23;;
18090;SDS011;9172;49.948;9.208;2024-02-15T10:52:09;2.60;;;1.13;;
18090;SDS011;9172;49.948;9.208;2024-02-15T10:54:41;2.33;;;0.93;;
18090;SDS011;9172;49.948;9.208;2024-02-15T10:57:13;5.60;;;1.23;;
18090;SDS011;9172;49.948;9.208;2024-02-15T10:59:47;2.33;;;1.00;;
18090;SDS011;9172;49.948;9.208;2024-02-15T11:02:26;2.63;;;0.90;;
18090;SDS011;9172;49.948;9.208;2024-02-15T11:04:58;2.60;;;1.20;;
18090;SDS011;9172;49.948;9.208;2024-02-15T11:07:31;2.53;;;1.00;;
18090;SDS011;9172;49.948;9.208;2024-02-15T11:10:00;5.67;;;1.20;;
18090;SDS011;9172;49.948;9.208;2024-02-15T11:12:31;3.03;;;0.73;;
18090;SDS011;9172;49.948;9.208;2024-02-15T11:14:59;2.00;;;0.93;;
18090;SDS011;9172;49.948;9.208;2024-02-15T11:17:47;5.53;;;1.10;;
18090;SDS011;9172;49.948;9.208;2024-02-15T11:20:45;4.60;;;1.30;;
18090;SDS011;9172;49.948;9.208;2024-02-15T11:23:25;3.57;;;0.90;;
18090;SDS011;9172;49.948;9.208;2024-02-15T11:25:54;5.27;;;1.00;;
18090;SDS011;9172;49.948;9.208;2024-02-15T11:28:37;2.30;;;0.77;;
18090;SDS011;9172;49.948;9.208;2024-02-15T11:31:08;1.57;;;0.83;;
18090;SDS011;9172;49.948;9.208;2024-02-15T11:33:39;2.17;;;1.10;;
18090;SDS011;9172;49.948;9.208;2024-02-15T11:36:09;3.03;;;1.23;;
18090;SDS011;9172;49.948;9.208;2024-02-15T11:38:39;2.37;;;0.93;;
18090;SDS011;9172;49.948;9.208;2024-02-15T11:41:09;2.00;;;1.00;;
18090;SDS011;9172;49.948;9.208;2024-02-15T11:43:48;2.87;;;1.03;;
18090;SDS011;9172;49.948;9.208;2024-02-15T11:46:24;1.13;;;0.80;;
18090;SDS011;9172;49.948;9.208;2024-02-15T11:48:57;1.73;;;1.00;;
18090;SDS011;9172;49.948;9.208;2024-02-15T11:51:29;5.77;;;1.20;;
18090;SDS011;9172;49.948;9.208;2024-02-15T11:54:04;5.43;;;0.80;;
18090;SDS011;9172;49.948;9.208;2024-02-15T11:56:50;2.40;;;1.20;;
18090;SDS011;9172;49.948;9.208;2024-02-15T11:59:22;7.27;;;1.30;;
18090;SDS011;9172;49.948;9.208;2024-02-15T12:01:59;2.73;;;1.13;;
18090;SDS011;9172;49.948;9.208;2024-02-15T12:04:46;6.43;;;1.07;;
18090;SDS011;9172;49.948;9.208;2024-02-15T12:07:33;4.83;;;1.17;;
18090;SDS011;9172;49.948;9.208;2024-02-15T12:10:20;3.47;;;0.90;;
18090;SDS011;9172;49.948;9.208;2024-02-15T12:13:06;1.97;;;1.20;;
18090;SDS011;9172;49.948;9.208;2024-02-15T12:15:57;1.27;;;0.80;;
18090;SDS011;9172;49.948;9.208;2024-02-15T12:18:44;5.30;;;1.30;;
18090;SDS011;9172;49.948;9.208;2024-02-15T12:21:16;2.70;;;0.90;;
18090;SDS011;9172;49.948;9.208;2024-02-15T12:23:56;3.37;;;0.90;;
18090;SDS011;9172;49.948;9.208;2024-02-15T12:26:25;1.67;;;0.80;;
18090;SDS011;9172;49.948;9.208;2024-02-15T12:28:56;6.10;;;0.90;;
18090;SDS011;9172;49.948;9.208;2024-02-15T12:31:25;2.37;;;0.93;;
18090;SDS011;9172;49.948;9.208;2024-02-15T12:34:00;1.57;;;0.70;;
18090;SDS011;9172;49.948;9.208;2024-02-15T12:36:31;3.70;;;1.00;;
18090;SDS011;9172;49.948;9.208;2024-02-15T12:39:01;1.47;;;0.70;;
18090;SDS011;9172;49.948;9.208;2024-02-15T12:41:32;2.77;;;1.10;;
18090;SDS011;9172;49.948;9.208;2024-02-15T12:44:00;0.83;;;0.50;;
18090;SDS011;9172;49.948;9.208;2024-02-15T12:49:10;1.33;;;0.73;;
18090;SDS011;9172;49.948;9.208;2024-02-15T12:51:41;1.83;;;0.90;;
18090;SDS011;9172;49.948;9.208;2024-02-15T12:54:20;5.70;;;1.63;;
18090;SDS011;9172;49.948;9.208;2024-02-15T12:56:49;6.30;;;1.47;;
18090;SDS011;9172;49.948;9.208;2024-02-15T12:59:18;4.00;;;1.17;;
18090;SDS011;9172;49.948;9.208;2024-02-15T13:01:47;1.20;;;0.67;;
18090;SDS011;9172;49.948;9.208;2024-02-15T13:04:22;4.30;;;0.80;;
18090;SDS011;9172;49.948;9.208;2024-02-15T13:06:51;3.00;;;1.00;;
18090;SDS011;9172;49.948;9.208;2024-02-15T13:09:20;4.77;;;0.90;;
18090;SDS011;9172;49.948;9.208;2024-02-15T13:11:49;3.80;;;0.83;;
18090;SDS011;9172;49.948;9.208;2024-02-15T13:14:19;3.47;;;1.20;;
18090;SDS011;9172;49.948;9.208;2024-02-15T13:16:48;1.33;;;0.67;;
18090;SDS011;9172;49.948;9.208;2024-02-15T13:19:17;2.53;;;0.77;;
18090;SDS011;9172;49.948;9.208;2024-02-15T13:21:47;2.27;;;0.73;;
18090;SDS011;9172;49.948;9.208;2024-02-15T13:24:17;2.17;;;0.87;;
18090;SDS011;9172;49.948;9.208;2024-02-15T13:26:47;2.27;;;0.57;;
18090;SDS011;9172;49.948;9.208;2024-02-15T13:29:17;2.00;;;0.77;;
18090;SDS011;9172;49.948;9.208;2024-02-15T13:31:46;0.87;;;0.60;;
18090;SDS011;9172;49.948;9.208;2024-02-15T13:34:17;1.67;;;0.70;;
18090;SDS011;9172;49.948;9.208;2024-02-15T13:36:47;2.63;;;0.70;;
18090;SDS011;9172;49.948;9.208;2024-02-15T13:39:16;0.83;;;0.60;;
18090;SDS011;9172;49.948;9.208;2024-02-15T13:41:47;2.97;;;0.80;;
18090;SDS011;9172;49.948;9.208;2024-02-15T13:44:15;2.03;;;0.60;;
18090;SDS011;9172;49.948;9.208;2024-02-15T13:46:44;1.93;;;0.73;;
18090;SDS011;9172;49.948;9.208;2024-02-15T13:49:16;0.93;;;0.60;;
18090;SDS011;9172;49.948;9.208;2024-02-15T13:51:44;4.20;;;0.90;;
18090;SDS011;9172;49.948;9.208;2024-02-15T13:54:13;2.53;;;0.90;;
18090;SDS011;9172;49.948;9.208;2024-02-15T13:56:41;1.73;;;0.73;;
18090;SDS011;9172;49.948;9.208;2024-02-15T13:59:10;1.90;;;0.77;;
18090;SDS011;9172;49.948;9.208;2024-02-15T14:01:39;2.37;;;0.80;;
18090;SDS011;9172;49.948;9.208;2024-02-15T14:04:10;3.47;;;0.80;;
18090;SDS011;9172;49.948;9.208;2024-02-15T14:06:38;2.97;;;0.97;;
18090;SDS011;9172;49.948;9.208;2024-02-15T14:09:09;2.83;;;0.93;;
18090;SDS011;9172;49.948;9.208;2024-02-15T14:11:38;6.50;;;1.30;;
18090;SDS011;9172;49.948;9.208;2024-02-15T14:14:06;3.70;;;1.07;;
18090;SDS011;9172;49.948;9.208;2024-02-15T14:16:35;1.00;;;0.67;;
18090;SDS011;9172;49.948;9.208;2024-02-15T14:19:03;3.27;;;0.70;;
18090;SDS011;9172;49.948;9.208;2024-02-15T14:21:32;3.80;;;0.90;;
18090;SDS011;9172;49.948;9.208;2024-02-15T14:24:03;1.87;;;0.80;;
18090;SDS011;9172;49.948;9.208;2024-02-15T14:26:36;4.23;;;1.00;;
18090;SDS011;9172;49.948;9.208;2024-02-15T14:29:05;2.07;;;0.73;;
18090;SDS011;9172;49.948;9.208;2024-02-15T14:31:33;1.40;;;0.60;;
18090;SDS011;9172;49.948;9.208;2024-02-15T14:34:20;3.47;;;0.77;;
18090;SDS011;9172;49.948;9.208;2024-02-15T14:36:50;1.07;;;0.70;;
18090;SDS011;9172;49.948;9.208;2024-02-15T14:39:18;2.60;;;0.80;;
18090;SDS011;9172;49.948;9.208;2024-02-15T14:41:48;2.10;;;0.90;;
18090;SDS011;9172;49.948;9.208;2024-02-15T14:44:16;4.07;;;0.67;;
18090;SDS011;9172;49.948;9.208;2024-02-15T14:46:45;1.70;;;0.80;;
18090;SDS011;9172;49.948;9.208;2024-02-15T14:49:13;1.10;;;0.60;;
18090;SDS011;9172;49.948;9.208;2024-02-15T14:51:43;1.73;;;1.03;;
18090;SDS011;9172;49.948;9.208;2024-02-15T14:54:11;4.43;;;0.77;;
18090;SDS011;9172;49.948;9.208;2024-02-15T14:56:41;1.27;;;0.60;;
18090;SDS011;9172;49.948;9.208;2024-02-15T14:59:09;2.57;;;0.77;;
18090;SDS011;9172;49.948;9.208;2024-02-15T15:01:38;1.33;;;0.77;;
18090;SDS011;9172;49.948;9.208;2024-02-15T15:04:07;2.40;;;0.80;;
18090;SDS011;9172;49.948;9.208;2024-02-15T15:06:38;2.37;;;0.83;;
18090;SDS011;9172;49.948;9.208;2024-02-15T15:09:26;1.20;;;0.90;;
18090;SDS011;9172;49.948;9.208;2024-02-15T15:12:13;2.60;;;0.90;;
18090;SDS011;9172;49.948;9.208;2024-02-15T15:15:04;1.87;;;0.70;;
18090;SDS011;9172;49.948;9.208;2024-02-15T15:17:34;3.20;;;0.73;;
18090;SDS011;9172;49.948;9.208;2024-02-15T15:20:05;2.40;;;0.70;;
18090;SDS011;9172;49.948;9.208;2024-02-15T15:22:36;0.83;;;0.50;;
18090;SDS011;9172;49.948;9.208;2024-02-15T15:25:05;4.87;;;0.87;;